createdAt,value
2023-02-27T00:01:39.786Z,101311.56
2023-02-27T00:06:41.746Z,101317.59
2023-02-27T00:11:43.727Z,101321.03
2023-02-27T00:16:45.785Z,101323.66
2023-02-27T00:21:48.197Z,101323.56
2023-02-27T00:26:50.252Z,101328.88
2023-02-27T00:31:52.448Z,101332.22
2023-02-27T00:36:54.481Z,101340.13
2023-02-27T00:41:56.391Z,101330.50
2023-02-27T00:46:58.453Z,101342.66
2023-02-27T00:52:00.604Z,101351.38
2023-02-27T00:57:02.769Z,101348.78
2023-02-27T01:02:04.917Z,101342.66
2023-02-27T01:07:07.008Z,101334.81
2023-02-27T01:12:09.078Z,101335.63
2023-02-27T01:17:11.421Z,101339.00
2023-02-27T01:22:13.521Z,101338.25
2023-02-27T01:27:15.498Z,101338.16
2023-02-27T01:32:17.721Z,101336.47
2023-02-27T01:37:19.822Z,101334.75
2023-02-27T01:42:24.872Z,101344.38
2023-02-27T01:47:26.960Z,101343.38
2023-02-27T01:52:31.067Z,101349.50
2023-02-27T01:57:33.095Z,101353.75
2023-02-27T02:07:55.367Z,101364.25
2023-02-27T02:12:58.198Z,101371.28
2023-02-27T02:18:16.320Z,101366.88
2023-02-27T02:23:32.293Z,101372.91
2023-02-27T02:29:07.352Z,101374.72
2023-02-27T02:34:41.589Z,101380.75
2023-02-27T02:40:00.422Z,101389.47
2023-02-27T02:45:08.580Z,101392.06
2023-02-27T02:50:29.616Z,101399.00
2023-02-27T02:55:58.344Z,101402.50
2023-02-27T03:01:16.155Z,101402.34
2023-02-27T03:06:28.096Z,101411.16
2023-02-27T03:11:35.724Z,101419.00
2023-02-27T03:16:47.967Z,101420.69
2023-02-27T03:21:56.493Z,101413.69
2023-02-27T03:27:03.109Z,101418.00
2023-02-27T03:32:22.076Z,101425.03
2023-02-27T03:37:47.678Z,101433.66
2023-02-27T03:43:01.243Z,101430.06
2023-02-27T03:48:04.638Z,101447.38
2023-02-27T03:53:11.000Z,101450.88
2023-02-27T03:58:13.208Z,101459.59
2023-02-27T04:03:15.582Z,101470.94
2023-02-27T04:08:49.984Z,101476.88
2023-02-27T04:14:34.757Z,101483.09
2023-02-27T04:20:19.973Z,101486.44
2023-02-27T04:25:32.000Z,101482.91
2023-02-27T04:30:46.777Z,101490.84
2023-02-27T04:36:06.351Z,101483.81
2023-02-27T04:41:26.204Z,101482.03
2023-02-27T04:46:31.972Z,101493.28
2023-02-27T04:51:42.972Z,101501.09
2023-02-27T04:56:53.032Z,101505.41
2023-02-27T05:02:02.617Z,101519.38
2023-02-27T05:07:09.678Z,101521.81
2023-02-27T05:12:23.426Z,101520.09
2023-02-27T05:17:44.812Z,101534.84
2023-02-27T05:22:49.646Z,101534.94
2023-02-27T05:28:14.073Z,101541.88
2023-02-27T05:33:48.055Z,101540.06
2023-02-27T05:39:00.337Z,101547.09
2023-02-27T05:44:18.631Z,101545.19
2023-02-27T05:49:28.137Z,101553.03
2023-02-27T05:54:37.716Z,101569.66
2023-02-27T05:59:48.253Z,101576.59
2023-02-27T06:04:50.273Z,101587.13
2023-02-27T06:09:52.295Z,101592.34
2023-02-27T06:14:54.649Z,101601.88
2023-02-27T06:19:56.655Z,101599.34
2023-02-27T06:24:58.735Z,101605.47
2023-02-27T06:30:00.724Z,101602.06
2023-02-27T06:35:02.802Z,101605.47
2023-02-27T06:40:14.811Z,101613.38
2023-02-27T06:45:18.008Z,101621.31
2023-02-27T06:50:20.463Z,101622.22
2023-02-27T06:55:22.977Z,101627.50
2023-02-27T07:00:25.267Z,101625.72
2023-02-27T07:05:27.265Z,101637.13
2023-02-27T07:10:29.481Z,101633.72
2023-02-27T07:15:31.733Z,101647.84
2023-02-27T07:20:33.864Z,101657.56
2023-02-27T07:25:36.013Z,101647.19
2023-02-27T07:30:38.088Z,101659.53
2023-02-27T07:35:40.512Z,101649.19
2023-02-27T07:40:42.738Z,101652.84
2023-02-27T07:45:46.273Z,101650.50
2023-02-27T07:50:48.620Z,101657.69
2023-02-27T07:55:50.929Z,101657.97
2023-02-27T08:00:54.839Z,101666.13
2023-02-27T08:05:56.766Z,101664.59
2023-02-27T08:10:58.945Z,101677.19
2023-02-27T08:16:01.052Z,101686.22
2023-02-27T08:21:05.338Z,101684.84
2023-02-27T08:26:07.327Z,101692.13
2023-02-27T08:31:09.529Z,101695.25
2023-02-27T08:36:11.687Z,101695.75
2023-02-27T08:41:13.865Z,101698.13
2023-02-27T08:46:16.583Z,101701.41
2023-02-27T08:51:18.735Z,101708.28
2023-02-27T08:56:20.797Z,101704.50
2023-02-27T09:01:23.057Z,101708.63
2023-02-27T09:06:26.378Z,101710.81
2023-02-27T09:11:29.205Z,101729.69
2023-02-27T09:16:31.824Z,101726.50
2023-02-27T09:21:34.410Z,101719.75
2023-02-27T09:26:45.170Z,101727.63
2023-02-27T09:31:48.582Z,101725.69
2023-02-27T09:36:51.026Z,101721.16
2023-02-27T09:42:28.166Z,101721.19
2023-02-27T09:47:38.620Z,101733.22
2023-02-27T09:52:40.741Z,101730.78
2023-02-27T09:57:52.497Z,101742.09
2023-02-27T10:03:19.039Z,101742.66
2023-02-27T10:08:35.540Z,101745.72
2023-02-27T10:14:06.139Z,101743.22
2023-02-27T10:19:17.134Z,101757.59
2023-02-27T10:24:29.902Z,101757.66
2023-02-27T10:29:34.648Z,101756.00
2023-02-27T10:34:39.817Z,101759.72
2023-02-27T10:39:53.157Z,101763.75
2023-02-27T10:44:56.407Z,101770.09
2023-02-27T10:50:00.825Z,101770.22
2023-02-27T10:55:19.856Z,101762.53
2023-02-27T11:00:44.287Z,101768.91
2023-02-27T11:05:55.180Z,101762.00
2023-02-27T11:11:09.832Z,101762.13
2023-02-27T11:16:23.270Z,101763.00
2023-02-27T11:21:29.283Z,101762.94
2023-02-27T11:26:37.345Z,101754.31
2023-02-27T11:31:40.601Z,101758.75
2023-02-27T11:36:46.285Z,101756.13
2023-02-27T11:41:49.189Z,101764.00
2023-02-27T11:46:51.471Z,101764.13
2023-02-27T11:52:29.086Z,101769.56
2023-02-27T11:57:40.336Z,101760.84
2023-02-27T12:03:04.286Z,101761.00
2023-02-27T12:08:22.586Z,101762.75
2023-02-27T12:13:32.289Z,101754.84
2023-02-27T12:18:58.116Z,101769.75
2023-02-27T12:24:15.837Z,101764.44
2023-02-27T12:29:32.292Z,101763.34
2023-02-27T12:34:45.387Z,101761.56
2023-02-27T12:39:48.463Z,101764.91
2023-02-27T12:45:08.595Z,101769.22
2023-02-27T12:50:42.333Z,101763.78
2023-02-27T12:55:55.163Z,101765.47
2023-02-27T13:01:42.915Z,101770.00
2023-02-27T13:07:18.295Z,101772.75
2023-02-27T13:12:25.893Z,101771.06
2023-02-27T13:17:39.037Z,101763.91
2023-02-27T13:22:54.422Z,101763.28
2023-02-27T13:28:03.009Z,101764.44
2023-02-27T13:33:38.700Z,101758.63
2023-02-27T13:38:52.417Z,101758.84
2023-02-27T13:43:58.832Z,101759.00
2023-02-27T13:49:10.723Z,101767.03
2023-02-27T13:54:16.848Z,101760.97
2023-02-27T13:59:31.220Z,101763.72
2023-02-27T14:04:36.650Z,101767.44
2023-02-27T14:09:45.570Z,101757.63
2023-02-27T14:14:50.627Z,101758.75
2023-02-27T14:19:57.374Z,101768.38
2023-02-27T14:25:24.637Z,101775.44
2023-02-27T14:30:32.594Z,101789.50
2023-02-27T14:35:35.297Z,101785.03
2023-02-27T14:41:09.696Z,101790.13
2023-02-27T14:46:39.142Z,101796.16
2023-02-27T14:51:41.172Z,101795.03
2023-02-27T14:56:58.060Z,101799.28
2023-02-27T15:02:04.590Z,101803.47
2023-02-27T15:07:06.795Z,101811.09
2023-02-27T15:12:10.535Z,101816.13
2023-02-27T15:17:27.501Z,101827.31
2023-02-27T15:22:39.988Z,101820.91
2023-02-27T15:27:42.667Z,101825.03
2023-02-27T15:32:44.975Z,101840.56
2023-02-27T15:37:53.300Z,101838.56
2023-02-27T15:42:58.720Z,101841.88
2023-02-27T15:48:01.403Z,101847.69
2023-02-27T15:53:25.260Z,101854.47
2023-02-27T15:58:49.310Z,101861.16
2023-02-27T16:03:54.396Z,101873.22
2023-02-27T16:09:00.675Z,101875.56
2023-02-27T16:14:04.592Z,101889.28
2023-02-27T16:19:27.989Z,101881.06
2023-02-27T16:24:34.431Z,101897.47
2023-02-27T16:29:44.977Z,101894.50
2023-02-27T16:34:47.380Z,101908.28
2023-02-27T16:39:52.705Z,101915.88
2023-02-27T16:44:55.013Z,101923.34
2023-02-27T16:49:57.530Z,101932.69
2023-02-27T16:55:00.020Z,101930.69
2023-02-27T17:00:02.776Z,101932.16
2023-02-27T17:05:06.393Z,101945.81
2023-02-27T17:10:11.910Z,101941.13
2023-02-27T17:15:15.065Z,101946.06
2023-02-27T17:20:18.897Z,101962.38
2023-02-27T17:25:21.263Z,101959.44
2023-02-27T17:30:23.660Z,101965.22
2023-02-27T17:35:26.070Z,101973.78
2023-02-27T17:40:28.752Z,101978.72
2023-02-27T17:45:31.510Z,101989.00
2023-02-27T17:50:34.986Z,102000.09
2023-02-27T17:55:42.285Z,101995.28
2023-02-27T18:00:45.323Z,102008.00
2023-02-27T18:05:52.326Z,102001.63
2023-02-27T18:10:56.212Z,102017.09
2023-02-27T18:15:59.241Z,102013.19
2023-02-27T18:21:09.752Z,102017.22
2023-02-27T18:26:28.989Z,102018.44
2023-02-27T18:31:38.921Z,102029.50
2023-02-27T18:36:41.974Z,102027.31
2023-02-27T18:41:45.270Z,102033.03
2023-02-27T18:46:57.240Z,102041.41
2023-02-27T18:52:01.618Z,102038.19
2023-02-27T18:57:06.978Z,102045.72
2023-02-27T19:02:20.605Z,102048.75
2023-02-27T19:07:26.234Z,102046.38
2023-02-27T19:12:29.008Z,102053.81
2023-02-27T19:17:34.669Z,102057.66
2023-02-27T19:22:37.835Z,102055.31
2023-02-27T19:27:41.420Z,102058.31
2023-02-27T19:32:44.981Z,102061.31
2023-02-27T19:37:55.003Z,102051.94
2023-02-27T19:42:59.208Z,102064.59
2023-02-27T19:48:02.784Z,102067.47
2023-02-27T19:53:06.073Z,102061.66
2023-02-27T19:58:09.834Z,102059.41
2023-02-27T20:03:12.926Z,102080.78
2023-02-27T20:08:17.205Z,102084.53
2023-02-27T20:13:20.366Z,102077.78
2023-02-27T20:18:23.693Z,102080.72
2023-02-27T20:23:26.812Z,102088.09
2023-02-27T20:28:29.771Z,102092.66
2023-02-27T20:33:32.809Z,102100.03
2023-02-27T20:38:40.095Z,102101.19
2023-02-27T20:43:46.543Z,102110.16
2023-02-27T20:48:50.044Z,102107.06
2023-02-27T20:53:56.939Z,102110.81
2023-02-27T20:59:04.537Z,102119.84
2023-02-27T21:04:07.343Z,102122.78
2023-02-27T21:09:09.691Z,102124.78
2023-02-27T21:14:12.761Z,102120.78
2023-02-27T21:19:16.000Z,102122.69
2023-02-27T21:24:18.451Z,102125.47
2023-02-27T21:29:22.319Z,102131.94
2023-02-27T21:34:27.133Z,102139.25
2023-02-27T21:39:29.693Z,102148.16
2023-02-27T21:44:32.452Z,102147.53
2023-02-27T21:49:34.626Z,102155.72
2023-02-27T21:54:36.734Z,102163.03
2023-02-27T21:59:39.282Z,102164.19
2023-02-27T22:04:41.238Z,102169.78
2023-02-27T22:09:43.390Z,102158.72
2023-02-27T22:14:45.534Z,102164.31
2023-02-27T22:19:48.274Z,102165.47
2023-02-27T22:24:50.394Z,102165.88
2023-02-27T22:29:52.493Z,102170.53
2023-02-27T22:34:54.558Z,102169.09
2023-02-27T22:39:57.375Z,102162.44
2023-02-27T22:44:59.580Z,102168.09
2023-02-27T22:50:01.547Z,102164.03
2023-02-27T22:55:03.941Z,102169.59
2023-02-27T23:00:07.366Z,102167.34
2023-02-27T23:05:09.942Z,102166.69
2023-02-27T23:10:12.627Z,102177.66
2023-02-27T23:15:14.768Z,102170.75
2023-02-27T23:20:18.330Z,102179.25
2023-02-27T23:25:20.951Z,102182.22
2023-02-27T23:30:23.293Z,102179.03
2023-02-27T23:35:26.170Z,102182.88
2023-02-27T23:40:28.649Z,102187.63
2023-02-27T23:45:31.579Z,102188.72
2023-02-27T23:50:44.179Z,102197.75
2023-02-27T23:55:46.252Z,102201.59
